createdAt,value
2017-02-09T00:00:13.661Z,1001.87
2017-02-09T00:01:13.629Z,1001.88
2017-02-09T00:02:13.669Z,1001.85
2017-02-09T00:03:13.662Z,1001.85
2017-02-09T00:04:13.788Z,1001.84
2017-02-09T00:05:13.740Z,1001.86
2017-02-09T00:06:13.845Z,1001.84
2017-02-09T00:07:13.893Z,1001.86
2017-02-09T00:08:13.906Z,1001.84
2017-02-09T00:09:13.923Z,1001.91
2017-02-09T00:10:13.948Z,1001.89
2017-02-09T00:11:13.939Z,1001.91
2017-02-09T00:12:14.029Z,1001.89
2017-02-09T00:13:13.932Z,1001.91
2017-02-09T00:14:14.038Z,1001.92
2017-02-09T00:15:14.106Z,1001.88
2017-02-09T00:16:14.092Z,1001.91
2017-02-09T00:17:14.042Z,1001.91
2017-02-09T00:18:14.066Z,1001.94
2017-02-09T00:19:14.215Z,1001.93
2017-02-09T00:20:14.242Z,1001.94
2017-02-09T00:21:14.281Z,1001.91
2017-02-09T00:22:14.226Z,1001.92
2017-02-09T00:23:14.304Z,1001.92
2017-02-09T00:24:14.304Z,1001.91
2017-02-09T00:25:14.315Z,1001.92
2017-02-09T00:26:14.354Z,1001.93
2017-02-09T00:27:14.467Z,1001.93
2017-02-09T00:28:14.447Z,1001.94
2017-02-09T00:29:14.477Z,1001.91
2017-02-09T00:30:14.483Z,1001.92
2017-02-09T00:31:14.429Z,1001.92
2017-02-09T00:32:14.514Z,1001.97
2017-02-09T00:33:14.567Z,1001.94
2017-02-09T00:34:14.511Z,1001.96
2017-02-09T00:35:14.785Z,1001.91
2017-02-09T00:36:14.652Z,1001.91
2017-02-09T00:37:14.591Z,1001.94
2017-02-09T00:38:14.695Z,1001.91
2017-02-09T00:39:14.746Z,1001.9
2017-02-09T00:40:14.980Z,1001.9
2017-02-09T00:41:14.612Z,1001.93
2017-02-09T00:42:14.810Z,1001.92
2017-02-09T00:43:14.810Z,1001.96
2017-02-09T00:44:14.875Z,1001.96
2017-02-09T00:45:14.753Z,1001.91
2017-02-09T00:46:14.824Z,1001.91
2017-02-09T00:47:14.942Z,1001.9
2017-02-09T00:48:14.971Z,1001.89
2017-02-09T00:49:14.993Z,1001.89
2017-02-09T00:50:14.904Z,1001.89
2017-02-09T00:51:14.934Z,1001.92
2017-02-09T00:52:14.951Z,1001.89
2017-02-09T00:53:15.006Z,1001.92
2017-02-09T00:54:15.141Z,1001.93
2017-02-09T00:55:15.149Z,1001.96
2017-02-09T00:56:15.205Z,1001.93
2017-02-09T00:57:15.152Z,1001.97
2017-02-09T00:58:15.238Z,1002
2017-02-09T00:59:15.294Z,1001.98
2017-02-09T01:00:15.180Z,1002
2017-02-09T01:01:15.205Z,1002.03
2017-02-09T01:02:15.229Z,1002.07
2017-02-09T01:03:15.362Z,1002.06
2017-02-09T01:04:15.300Z,1002.07
2017-02-09T01:05:15.419Z,1002.06
2017-02-09T01:06:15.347Z,1002.07
2017-02-09T01:07:15.472Z,1002.1
2017-02-09T01:08:15.428Z,1002.13
2017-02-09T01:09:15.528Z,1002.1
2017-02-09T01:10:15.539Z,1002.14
2017-02-09T01:11:15.570Z,1002.08
2017-02-09T01:12:15.630Z,1002.12
2017-02-09T01:13:15.625Z,1002.09
2017-02-09T01:14:15.652Z,1002.16
2017-02-09T01:15:15.684Z,1002.14
2017-02-09T01:16:15.564Z,1002.2
2017-02-09T01:17:15.618Z,1002.14
2017-02-09T01:18:15.756Z,1002.16
2017-02-09T01:19:15.806Z,1002.19
2017-02-09T01:20:15.791Z,1002.17
2017-02-09T01:21:15.792Z,1002.2
2017-02-09T01:22:15.785Z,1002.2
2017-02-09T01:23:15.913Z,1002.18
2017-02-09T01:24:15.875Z,1002.2
2017-02-09T01:25:15.958Z,1002.18
2017-02-09T01:26:15.988Z,1002.23
2017-02-09T01:27:15.955Z,1002.18
2017-02-09T01:28:15.951Z,1002.22
2017-02-09T01:29:15.994Z,1002.2
2017-02-09T01:30:16.092Z,1002.2
2017-02-09T01:31:16.341Z,1002.22
2017-02-09T01:32:16.125Z,1002.21
2017-02-09T01:33:16.164Z,1002.18
2017-02-09T01:34:16.188Z,1002.18
2017-02-09T01:35:16.195Z,1002.19
2017-02-09T01:36:16.478Z,1002.2
2017-02-09T01:37:16.264Z,1002.18
2017-02-09T01:38:16.305Z,1002.22
2017-02-09T01:39:16.325Z,1002.18
2017-02-09T01:40:16.346Z,1002.18
2017-02-09T01:41:16.617Z,1002.18
2017-02-09T01:42:16.246Z,1002.16
2017-02-09T01:43:16.348Z,1002.22
2017-02-09T01:44:16.471Z,1002.16
2017-02-09T01:45:16.491Z,1002.16
2017-02-09T01:46:16.698Z,1002.15
2017-02-09T01:47:16.508Z,1002.17
2017-02-09T01:48:16.483Z,1002.17
2017-02-09T01:49:16.586Z,1002.2
2017-02-09T01:50:16.529Z,1002.18
2017-02-09T01:51:16.878Z,1002.15
2017-02-09T01:52:16.674Z,1002.17
2017-02-09T01:53:16.704Z,1002.15
2017-02-09T01:54:16.698Z,1002.18
2017-02-09T01:55:16.686Z,1002.16
2017-02-09T01:56:16.771Z,1002.17
2017-02-09T01:57:16.809Z,1002.18
2017-02-09T01:58:16.717Z,1002.14
2017-02-09T01:59:16.861Z,1002.1
2017-02-09T02:00:16.833Z,1002.16
2017-02-09T02:01:16.895Z,1002.17
2017-02-09T02:02:16.831Z,1002.12
2017-02-09T02:03:16.936Z,1002.12
2017-02-09T02:04:16.968Z,1002.14
2017-02-09T02:05:16.889Z,1002.13
2017-02-09T02:06:16.947Z,1002.13
2017-02-09T02:07:17.190Z,1002.14
2017-02-09T02:08:17.041Z,1002.11
2017-02-09T02:09:17.058Z,1002.1
2017-02-09T02:10:17.128Z,1002.13
2017-02-09T02:11:17.089Z,1002.1
2017-02-09T02:12:17.494Z,1002.11
2017-02-09T02:13:17.221Z,1002.12
2017-02-09T02:14:17.245Z,1002.18
2017-02-09T02:15:17.158Z,1002.13
2017-02-09T02:16:17.165Z,1002.16
2017-02-09T02:17:17.284Z,1002.12
2017-02-09T02:18:17.234Z,1002.15
2017-02-09T02:19:17.370Z,1002.13
2017-02-09T02:20:17.281Z,1002.11
2017-02-09T02:21:17.374Z,1002.14
2017-02-09T02:22:17.334Z,1002.15
2017-02-09T02:23:17.355Z,1002.09
2017-02-09T02:24:17.471Z,1002.14
2017-02-09T02:25:17.484Z,1002.09
2017-02-09T02:26:17.550Z,1002.1
2017-02-09T02:27:17.590Z,1002.07
2017-02-09T02:28:17.604Z,1002.06
2017-02-09T02:29:17.600Z,1002.07
2017-02-09T02:30:17.674Z,1002.02
2017-02-09T02:31:17.687Z,1002.03
2017-02-09T02:32:17.700Z,1002.02
2017-02-09T02:33:17.744Z,1002.05
2017-02-09T02:34:17.749Z,1002.04
2017-02-09T02:35:17.701Z,1002.01
2017-02-09T02:36:17.803Z,1001.99
2017-02-09T02:37:17.771Z,1001.99
2017-02-09T02:38:18.084Z,1002.01
2017-02-09T02:39:17.865Z,1001.94
2017-02-09T02:40:17.901Z,1002
2017-02-09T02:41:17.960Z,1001.99
2017-02-09T02:42:17.993Z,1001.97
2017-02-09T02:43:18.261Z,1002
2017-02-09T02:44:18.019Z,1002.02
2017-02-09T02:45:17.995Z,1002
2017-02-09T02:46:17.970Z,1001.99
2017-02-09T02:47:18.090Z,1001.99
2017-02-09T02:48:18.252Z,1002
2017-02-09T02:49:18.177Z,1002.04
2017-02-09T02:50:18.158Z,1002.06
2017-02-09T02:51:18.216Z,1002.03
2017-02-09T02:52:18.256Z,1002.05
2017-02-09T02:53:18.468Z,1002.07
2017-02-09T02:54:18.232Z,1002.05
2017-02-09T02:55:18.328Z,1002.1
2017-02-09T02:56:18.324Z,1002.08
2017-02-09T02:57:18.282Z,1002.07
2017-02-09T02:58:18.628Z,1002.06
2017-02-09T02:59:18.433Z,1002.06
2017-02-09T03:00:18.454Z,1002.04
2017-02-09T03:01:18.431Z,1002.07
2017-02-09T03:02:18.352Z,1002.01
2017-02-09T03:03:18.679Z,1002.05
2017-02-09T03:04:18.438Z,1002.02
2017-02-09T03:05:18.598Z,1002.04
2017-02-09T03:06:18.335Z,1002.12
2017-02-09T03:07:18.631Z,1002.12
2017-02-09T03:08:18.650Z,1002.1
2017-02-09T03:09:18.647Z,1002.11
2017-02-09T03:10:18.715Z,1002.08
2017-02-09T03:11:18.706Z,1002.09
2017-02-09T03:12:18.699Z,1002.09
2017-02-09T03:13:18.760Z,1002.15
2017-02-09T03:14:18.703Z,1002.13
2017-02-09T03:15:18.735Z,1002.11
2017-02-09T03:16:18.781Z,1002.15
2017-02-09T03:17:18.873Z,1002.11
2017-02-09T03:18:18.799Z,1002.09
2017-02-09T03:19:18.834Z,1002.05
2017-02-09T03:20:18.968Z,1002.07
2017-02-09T03:21:19.004Z,1002.08
2017-02-09T03:22:19.024Z,1002.09
2017-02-09T03:23:19.012Z,1002.04
2017-02-09T03:24:18.980Z,1002.06
2017-02-09T03:25:19.105Z,1002.07
2017-02-09T03:26:19.091Z,1002.1
2017-02-09T03:27:19.084Z,1002.12
2017-02-09T03:28:19.081Z,1002.11
2017-02-09T03:29:19.210Z,1002.08
2017-02-09T03:30:19.148Z,1002.04
2017-02-09T03:31:19.249Z,1002.11
2017-02-09T03:32:19.297Z,1002.06
2017-02-09T03:33:19.321Z,1002.08
2017-02-09T03:34:19.228Z,1002.06
2017-02-09T03:35:19.263Z,1002.05
2017-02-09T03:36:19.382Z,1002.06
2017-02-09T03:37:19.338Z,1002.08
2017-02-09T03:38:19.392Z,1002.09
2017-02-09T03:39:19.707Z,1002.14
2017-02-09T03:40:19.384Z,1002.14
2017-02-09T03:41:19.422Z,1002.16
2017-02-09T03:42:19.538Z,1002.15
2017-02-09T03:43:19.579Z,1002.18
2017-02-09T03:44:19.875Z,1002.15
2017-02-09T03:45:19.533Z,1002.19
2017-02-09T03:46:19.626Z,1002.19
2017-02-09T03:47:19.679Z,1002.2
2017-02-09T03:48:19.707Z,1002.16
2017-02-09T03:49:19.889Z,1002.21
2017-02-09T03:50:19.702Z,1002.16
2017-02-09T03:51:19.783Z,1002.2
2017-02-09T03:52:19.776Z,1002.17
2017-02-09T03:53:19.761Z,1002.15
2017-02-09T03:54:19.847Z,1002.14
2017-02-09T03:55:19.882Z,1002.13
2017-02-09T03:56:19.828Z,1002.16
2017-02-09T03:57:19.849Z,1002.11
2017-02-09T03:58:19.920Z,1002.12
2017-02-09T03:59:19.896Z,1002.1
2017-02-09T04:00:19.991Z,1002.1
2017-02-09T04:01:20.042Z,1002.08
2017-02-09T04:02:20.069Z,1002.12
2017-02-09T04:03:20.164Z,1002.14
2017-02-09T04:04:20.106Z,1002.15
2017-02-09T04:05:20.150Z,1002.14
2017-02-09T04:06:20.132Z,1002.17
2017-02-09T04:07:20.105Z,1002.15
2017-02-09T04:08:20.204Z,1002.15
2017-02-09T04:09:20.220Z,1002.19
2017-02-09T04:10:20.276Z,1002.19
2017-02-09T04:11:20.333Z,1002.17
2017-02-09T04:12:20.326Z,1002.16
2017-02-09T04:13:20.350Z,1002.2
2017-02-09T04:14:20.288Z,1002.16
2017-02-09T04:15:20.370Z,1002.17
2017-02-09T04:16:20.351Z,1002.16
2017-02-09T04:17:20.422Z,1002.22
2017-02-09T04:18:20.489Z,1002.19
2017-02-09T04:19:20.390Z,1002.22
2017-02-09T04:20:20.801Z,1002.22
2017-02-09T04:21:20.454Z,1002.27
2017-02-09T04:22:20.570Z,1002.23
2017-02-09T04:23:20.610Z,1002.23
2017-02-09T04:24:20.547Z,1002.25
2017-02-09T04:25:20.855Z,1002.24
2017-02-09T04:26:20.563Z,1002.23
2017-02-09T04:27:20.710Z,1002.22
2017-02-09T04:28:20.721Z,1002.25
2017-02-09T04:29:20.776Z,1002.31
2017-02-09T04:30:20.765Z,1002.3
2017-02-09T04:31:20.682Z,1002.31
2017-02-09T04:32:20.760Z,1002.35
2017-02-09T04:33:20.785Z,1002.31
2017-02-09T04:34:20.761Z,1002.3
2017-02-09T04:35:20.900Z,1002.26
2017-02-09T04:36:20.943Z,1002.31
2017-02-09T04:37:20.959Z,1002.28
2017-02-09T04:38:21.008Z,1002.3
2017-02-09T04:39:21.051Z,1002.28
2017-02-09T04:40:21.022Z,1002.3
2017-02-09T04:41:21.027Z,1002.31
2017-02-09T04:42:21.091Z,1002.28
2017-02-09T04:43:21.079Z,1002.33
2017-02-09T04:44:21.037Z,1002.33
2017-02-09T04:45:20.966Z,1002.32
2017-02-09T04:46:21.182Z,1002.31
2017-02-09T04:47:21.174Z,1002.33
2017-02-09T04:48:21.230Z,1002.32
2017-02-09T04:49:21.306Z,1002.33
2017-02-09T04:50:21.197Z,1002.31
2017-02-09T04:51:21.255Z,1002.32
2017-02-09T04:52:21.250Z,1002.31
2017-02-09T04:53:21.378Z,1002.33
2017-02-09T04:54:21.388Z,1002.32
2017-02-09T04:55:21.389Z,1002.36
2017-02-09T04:56:21.434Z,1002.32
2017-02-09T04:57:21.426Z,1002.34
2017-02-09T04:58:21.435Z,1002.36
2017-02-09T04:59:21.529Z,1002.32
2017-02-09T05:00:21.420Z,1002.33
2017-02-09T05:01:21.840Z,1002.34
2017-02-09T05:02:21.640Z,1002.34
2017-02-09T05:03:21.520Z,1002.33
2017-02-09T05:04:21.621Z,1002.37
2017-02-09T05:05:21.571Z,1002.3
2017-02-09T05:06:21.934Z,1002.3
2017-02-09T05:07:21.742Z,1002.35
2017-02-09T05:08:21.637Z,1002.35
2017-02-09T05:09:21.801Z,1002.33
2017-02-09T05:10:21.737Z,1002.32
2017-02-09T05:11:21.847Z,1002.29
2017-02-09T05:12:21.755Z,1002.3
2017-02-09T05:13:21.918Z,1002.28
2017-02-09T05:14:21.927Z,1002.31
2017-02-09T05:15:21.957Z,1002.28
2017-02-09T05:16:21.991Z,1002.32
2017-02-09T05:17:21.987Z,1002.29
2017-02-09T05:18:22.042Z,1002.26
2017-02-09T05:19:21.992Z,1002.28
2017-02-09T05:20:22.064Z,1002.29
2017-02-09T05:21:22.070Z,1002.28
2017-02-09T05:22:22.129Z,1002.28
2017-02-09T05:23:22.107Z,1002.27
2017-02-09T05:24:22.214Z,1002.24
2017-02-09T05:25:22.217Z,1002.3
2017-02-09T05:26:22.145Z,1002.3
2017-02-09T05:27:22.275Z,1002.25
2017-02-09T05:28:22.304Z,1002.29
2017-02-09T05:29:22.201Z,1002.29
2017-02-09T05:30:22.327Z,1002.31
2017-02-09T05:31:22.291Z,1002.31
2017-02-09T05:32:22.285Z,1002.31
2017-02-09T05:33:22.430Z,1002.32
2017-02-09T05:34:22.434Z,1002.33
2017-02-09T05:35:22.481Z,1002.3
2017-02-09T05:36:22.525Z,1002.31
2017-02-09T05:37:22.512Z,1002.29
2017-02-09T05:38:22.510Z,1002.29
2017-02-09T05:39:22.500Z,1002.3
2017-02-09T05:40:22.494Z,1002.3
2017-02-09T05:41:22.620Z,1002.29
2017-02-09T05:42:22.566Z,1002.27
2017-02-09T05:43:22.670Z,1002.32
2017-02-09T05:44:22.699Z,1002.31
2017-02-09T05:45:22.665Z,1002.28
2017-02-09T05:46:22.746Z,1002.27
2017-02-09T05:47:22.770Z,1002.31
2017-02-09T05:48:22.809Z,1002.32
2017-02-09T05:49:22.841Z,1002.32
2017-02-09T05:50:22.768Z,1002.26
2017-02-09T05:51:22.897Z,1002.23
2017-02-09T05:52:22.839Z,1002.29
2017-02-09T05:53:22.845Z,1002.26
2017-02-09T05:54:22.962Z,1002.26
2017-02-09T05:55:22.987Z,1002.27
2017-02-09T05:56:22.876Z,1002.25
2017-02-09T05:57:23.052Z,1002.25
2017-02-09T05:58:23.062Z,1002.27
2017-02-09T05:59:23.110Z,1002.24
2017-02-09T06:00:23.104Z,1002.22
2017-02-09T06:01:23.149Z,1002.27
2017-02-09T06:02:23.166Z,1002.25
2017-02-09T06:03:23.695Z,1002.23
2017-02-09T06:04:23.229Z,1002.23
2017-02-09T06:05:23.246Z,1002.24
2017-02-09T06:06:23.178Z,1002.26
2017-02-09T06:07:23.262Z,1002.27
2017-02-09T06:08:23.212Z,1002.27
2017-02-09T06:09:23.239Z,1002.3
2017-02-09T06:10:23.287Z,1002.32
2017-02-09T06:11:23.391Z,1002.33
2017-02-09T06:12:23.631Z,1002.34
2017-02-09T06:13:23.297Z,1002.33
2017-02-09T06:14:23.339Z,1002.35
2017-02-09T06:15:23.265Z,1002.32
2017-02-09T06:16:23.541Z,1002.33
2017-02-09T06:17:23.813Z,1002.3
2017-02-09T06:18:23.584Z,1002.3
2017-02-09T06:19:23.537Z,1002.34
2017-02-09T06:20:23.651Z,1002.28
2017-02-09T06:21:23.626Z,1002.31
2017-02-09T06:22:23.939Z,1002.27
2017-02-09T06:23:23.730Z,1002.3
2017-02-09T06:24:23.670Z,1002.32
2017-02-09T06:25:23.774Z,1002.3
2017-02-09T06:26:23.735Z,1002.25
2017-02-09T06:27:23.832Z,1002.31
2017-02-09T06:28:23.855Z,1002.24
2017-02-09T06:29:23.815Z,1002.26
2017-02-09T06:30:23.837Z,1002.28
2017-02-09T06:31:23.797Z,1002.29
2017-02-09T06:32:23.863Z,1002.25
2017-02-09T06:33:23.791Z,1002.24
2017-02-09T06:34:24.000Z,1002.3
2017-02-09T06:35:24.047Z,1002.28
2017-02-09T06:36:23.956Z,1002.27
2017-02-09T06:37:24.031Z,1002.27
2017-02-09T06:38:23.893Z,1002.27
2017-02-09T06:39:23.882Z,1002.29
2017-02-09T06:40:24.153Z,1002.26
2017-02-09T06:41:24.209Z,1002.27
2017-02-09T06:42:24.002Z,1002.3
2017-02-09T06:43:23.936Z,1002.25
2017-02-09T06:44:24.169Z,1002.24
2017-02-09T06:45:24.321Z,1002.27
2017-02-09T06:46:24.205Z,1002.26
2017-02-09T06:47:24.353Z,1002.3
2017-02-09T06:48:24.377Z,1002.31
2017-02-09T06:49:24.417Z,1002.27
2017-02-09T06:50:24.371Z,1002.27
2017-02-09T06:51:24.442Z,1002.28
2017-02-09T06:52:24.496Z,1002.24
2017-02-09T06:53:24.763Z,1002.31
2017-02-09T06:54:24.481Z,1002.28
2017-02-09T06:55:24.250Z,1002.27
2017-02-09T06:56:24.433Z,1002.28
2017-02-09T06:57:24.361Z,1002.28
2017-02-09T06:58:24.900Z,1002.3
2017-02-09T06:59:24.534Z,1002.31
2017-02-09T07:00:24.575Z,1002.3
2017-02-09T07:01:24.738Z,1002.36
2017-02-09T07:02:24.661Z,1002.31
2017-02-09T07:03:24.774Z,1002.3
2017-02-09T07:04:24.782Z,1002.34
2017-02-09T07:05:24.794Z,1002.32
2017-02-09T07:06:24.760Z,1002.36
2017-02-09T07:07:24.793Z,1002.36
2017-02-09T07:08:24.831Z,1002.35
2017-02-09T07:09:24.735Z,1002.39
2017-02-09T07:10:24.858Z,1002.37
2017-02-09T07:11:24.997Z,1002.4
2017-02-09T07:12:25.012Z,1002.41
2017-02-09T07:13:25.027Z,1002.4
2017-02-09T07:14:24.922Z,1002.43
2017-02-09T07:15:25.081Z,1002.42
2017-02-09T07:16:25.123Z,1002.37
2017-02-09T07:17:25.131Z,1002.36
2017-02-09T07:18:25.134Z,1002.38
2017-02-09T07:19:25.165Z,1002.4
2017-02-09T07:20:25.101Z,1002.38
2017-02-09T07:21:25.210Z,1002.38
2017-02-09T07:22:25.294Z,1002.37
2017-02-09T07:23:25.300Z,1002.37
2017-02-09T07:24:25.321Z,1002.36
2017-02-09T07:25:25.255Z,1002.37
2017-02-09T07:26:25.373Z,1002.35
2017-02-09T07:27:25.410Z,1002.38
2017-02-09T07:28:25.357Z,1002.34
2017-02-09T07:29:25.349Z,1002.34
2017-02-09T07:30:25.364Z,1002.37
2017-02-09T07:31:25.494Z,1002.33
2017-02-09T07:32:25.312Z,1002.37
2017-02-09T07:33:25.486Z,1002.34
2017-02-09T07:34:25.817Z,1002.32
2017-02-09T07:35:25.579Z,1002.32
2017-02-09T07:36:25.534Z,1002.29
2017-02-09T07:37:25.663Z,1002.33
2017-02-09T07:38:25.665Z,1002.31
2017-02-09T07:39:25.947Z,1002.32
2017-02-09T07:40:25.739Z,1002.25
2017-02-09T07:41:25.539Z,1002.28
2017-02-09T07:42:25.746Z,1002.26
2017-02-09T07:43:25.799Z,1002.25
2017-02-09T07:44:25.757Z,1002.3
2017-02-09T07:45:25.741Z,1002.27
2017-02-09T07:46:25.905Z,1002.22
2017-02-09T07:47:25.806Z,1002.25
2017-02-09T07:48:25.936Z,1002.26
2017-02-09T07:49:25.930Z,1002.27
2017-02-09T07:50:25.994Z,1002.25
2017-02-09T07:51:25.895Z,1002.28
2017-02-09T07:52:25.991Z,1002.27
2017-02-09T07:53:26.026Z,1002.28
2017-02-09T07:54:25.868Z,1002.33
2017-02-09T07:55:26.048Z,1002.35
2017-02-09T07:56:26.142Z,1002.3
2017-02-09T07:57:26.177Z,1002.28
2017-02-09T07:58:26.202Z,1002.27
2017-02-09T07:59:26.181Z,1002.24
2017-02-09T08:00:26.276Z,1002.27
2017-02-09T08:01:26.075Z,1002.21
2017-02-09T08:02:26.243Z,1002.27
2017-02-09T08:03:26.277Z,1002.26
2017-02-09T08:04:26.289Z,1002.26
2017-02-09T08:05:26.410Z,1002.27
2017-02-09T08:06:26.379Z,1002.31
2017-02-09T08:07:26.442Z,1002.28
2017-02-09T08:08:26.463Z,1002.31
2017-02-09T08:09:26.504Z,1002.3
2017-02-09T08:10:26.458Z,1002.31
2017-02-09T08:11:26.547Z,1002.34
2017-02-09T08:12:26.579Z,1002.32
2017-02-09T08:13:26.599Z,1002.3
2017-02-09T08:14:26.611Z,1002.32
2017-02-09T08:15:26.644Z,1002.31
2017-02-09T08:16:26.561Z,1002.29
2017-02-09T08:17:26.716Z,1002.31
2017-02-09T08:18:26.732Z,1002.32
2017-02-09T08:19:26.471Z,1002.35
2017-02-09T08:20:27.031Z,1002.32
2017-02-09T08:21:26.732Z,1002.28
2017-02-09T08:22:26.838Z,1002.33
2017-02-09T08:23:26.884Z,1002.3
2017-02-09T08:24:26.893Z,1002.3
2017-02-09T08:25:26.925Z,1002.31
2017-02-09T08:26:26.917Z,1002.36
2017-02-09T08:27:26.963Z,1002.35
2017-02-09T08:28:27.011Z,1002.25
2017-02-09T08:29:26.890Z,1002.28
2017-02-09T08:30:26.849Z,1002.27
2017-02-09T08:31:26.956Z,1002.31
2017-02-09T08:32:26.874Z,1002.2
2017-02-09T08:33:27.020Z,1002.23
2017-02-09T08:34:27.173Z,1002.27
2017-02-09T08:35:27.063Z,1002.24
2017-02-09T08:36:27.213Z,1002.2
2017-02-09T08:37:27.244Z,1002.24
2017-02-09T08:38:27.278Z,1002.22
2017-02-09T08:39:27.273Z,1002.22
2017-02-09T08:40:27.014Z,1002.19
2017-02-09T08:41:27.369Z,1002.17
2017-02-09T08:42:27.357Z,1002.17
2017-02-09T08:43:27.388Z,1002.15
2017-02-09T08:44:27.389Z,1002.21
2017-02-09T08:45:27.297Z,1002.18
2017-02-09T08:46:27.344Z,1002.22
2017-02-09T08:47:27.513Z,1002.15
2017-02-09T08:48:27.495Z,1002.12
2017-02-09T08:49:27.568Z,1002.19
2017-02-09T08:50:27.581Z,1002.19
2017-02-09T08:51:27.519Z,1002.18
2017-02-09T08:52:27.557Z,1002.18
2017-02-09T08:53:27.577Z,1002.13
2017-02-09T08:54:27.672Z,1002.14
2017-02-09T08:55:27.610Z,1002.14
2017-02-09T08:56:27.718Z,1002.15
2017-02-09T08:57:27.788Z,1002.1
2017-02-09T08:58:27.790Z,1002.09
2017-02-09T08:59:27.715Z,1002.05
2017-02-09T09:00:27.881Z,1002.05
2017-02-09T09:01:27.899Z,1002.05
2017-02-09T09:02:27.903Z,1002.03
2017-02-09T09:03:27.921Z,1002.07
2017-02-09T09:04:27.870Z,1002.02
2017-02-09T09:05:27.938Z,1002.05
2017-02-09T09:06:28.283Z,1002.02
2017-02-09T09:07:28.068Z,1002.05
2017-02-09T09:08:27.958Z,1002.05
2017-02-09T09:09:28.058Z,1002.03
2017-02-09T09:10:28.146Z,1002.01
2017-02-09T09:11:28.389Z,1001.99
2017-02-09T09:12:28.162Z,1001.99
2017-02-09T09:13:28.180Z,1001.99
2017-02-09T09:14:28.234Z,1001.98
2017-02-09T09:15:28.230Z,1002
2017-02-09T09:16:28.422Z,1001.99
2017-02-09T09:17:28.197Z,1002
2017-02-09T09:18:28.235Z,1001.95
2017-02-09T09:19:28.215Z,1001.95
2017-02-09T09:20:28.412Z,1001.96
2017-02-09T09:21:28.567Z,1001.95
2017-02-09T09:22:28.360Z,1001.95
2017-02-09T09:23:28.363Z,1001.97
2017-02-09T09:24:28.469Z,1001.96
2017-02-09T09:25:28.527Z,1001.92
2017-02-09T09:26:28.555Z,1001.93
2017-02-09T09:27:28.442Z,1001.91
2017-02-09T09:28:28.583Z,1001.95
2017-02-09T09:29:28.570Z,1001.95
2017-02-09T09:30:28.658Z,1001.94
2017-02-09T09:31:28.689Z,1001.93
2017-02-09T09:32:28.720Z,1001.95
2017-02-09T09:33:28.703Z,1001.96
2017-02-09T09:34:28.780Z,1001.98
2017-02-09T09:35:28.770Z,1001.97
2017-02-09T09:36:28.820Z,1001.94
2017-02-09T09:37:28.836Z,1001.96
2017-02-09T09:38:28.878Z,1001.95
2017-02-09T09:39:28.882Z,1001.95
2017-02-09T09:40:28.923Z,1001.91
2017-02-09T09:41:28.957Z,1001.91
2017-02-09T09:42:28.978Z,1001.92
2017-02-09T09:43:28.922Z,1001.88
2017-02-09T09:44:29.046Z,1001.86
2017-02-09T09:45:29.045Z,1001.84
2017-02-09T09:46:28.900Z,1001.84
2017-02-09T09:47:29.358Z,1001.82
2017-02-09T09:48:29.146Z,1001.82
2017-02-09T09:49:29.174Z,1001.8
2017-02-09T09:50:29.165Z,1001.8
2017-02-09T09:51:29.216Z,1001.76
2017-02-09T09:52:29.273Z,1001.77
2017-02-09T09:53:29.155Z,1001.73
2017-02-09T09:54:29.305Z,1001.71
2017-02-09T09:55:29.322Z,1001.7
2017-02-09T09:56:29.268Z,1001.71
2017-02-09T09:57:29.372Z,1001.65
2017-02-09T09:58:29.425Z,1001.63
2017-02-09T09:59:29.348Z,1001.61
2017-02-09T10:00:29.464Z,1001.63
2017-02-09T10:01:29.507Z,1001.61
2017-02-09T10:02:29.391Z,1001.55
2017-02-09T10:03:29.544Z,1001.57
2017-02-09T10:04:29.561Z,1001.59
2017-02-09T10:05:29.592Z,1001.54
2017-02-09T10:06:29.543Z,1001.63
2017-02-09T10:07:29.637Z,1001.59
2017-02-09T10:08:29.552Z,1001.62
2017-02-09T10:09:29.694Z,1001.64
2017-02-09T10:10:29.708Z,1001.6
2017-02-09T10:11:29.757Z,1001.61
2017-02-09T10:12:29.721Z,1001.61
2017-02-09T10:13:29.778Z,1001.61
2017-02-09T10:14:29.857Z,1001.61
2017-02-09T10:15:29.876Z,1001.61
2017-02-09T10:16:29.881Z,1001.65
2017-02-09T10:17:29.815Z,1001.63
2017-02-09T10:18:29.933Z,1001.64
2017-02-09T10:19:29.959Z,1001.68
2017-02-09T10:20:29.983Z,1001.71
2017-02-09T10:21:29.983Z,1001.64
2017-02-09T10:22:30.048Z,1001.65
2017-02-09T10:23:30.081Z,1001.66
2017-02-09T10:24:30.092Z,1001.6
2017-02-09T10:25:30.129Z,1001.59
2017-02-09T10:26:30.143Z,1001.57
2017-02-09T10:27:30.181Z,1001.57
2017-02-09T10:28:30.222Z,1001.58
2017-02-09T10:29:30.099Z,1001.58
2017-02-09T10:30:30.251Z,1001.56
2017-02-09T10:31:30.191Z,1001.53
2017-02-09T10:32:30.328Z,1001.56
2017-02-09T10:33:30.311Z,1001.56
2017-02-09T10:34:30.373Z,1001.54
2017-02-09T10:35:30.379Z,1001.54
2017-02-09T10:36:30.431Z,1001.57
2017-02-09T10:37:30.453Z,1001.56
2017-02-09T10:38:30.699Z,1001.54
2017-02-09T10:39:30.359Z,1001.54
2017-02-09T10:40:30.535Z,1001.5
2017-02-09T10:41:30.547Z,1001.47
2017-02-09T10:42:30.554Z,1001.46
2017-02-09T10:43:30.848Z,1001.44
2017-02-09T10:44:30.633Z,1001.39
2017-02-09T10:45:30.660Z,1001.44
2017-02-09T10:46:30.658Z,1001.4
2017-02-09T10:47:30.715Z,1001.4
2017-02-09T10:48:30.867Z,1001.4
2017-02-09T10:49:30.752Z,1001.39
2017-02-09T10:50:30.741Z,1001.35
2017-02-09T10:51:30.838Z,1001.4
2017-02-09T10:52:30.861Z,1001.36
2017-02-09T10:53:30.863Z,1001.29
2017-02-09T10:54:30.919Z,1001.27
2017-02-09T10:55:30.944Z,1001.23
2017-02-09T10:56:30.882Z,1001.28
2017-02-09T10:57:30.995Z,1001.29
2017-02-09T10:58:31.023Z,1001.25
2017-02-09T10:59:31.060Z,1001.26
2017-02-09T11:00:30.984Z,1001.27
2017-02-09T11:01:31.095Z,1001.29
2017-02-09T11:02:31.032Z,1001.27
2017-02-09T11:03:31.164Z,1001.29
2017-02-09T11:04:31.095Z,1001.27
2017-02-09T11:05:31.084Z,1001.3
2017-02-09T11:06:31.248Z,1001.33
2017-02-09T11:07:31.239Z,1001.3
2017-02-09T11:08:31.200Z,1001.36
2017-02-09T11:09:31.247Z,1001.36
2017-02-09T11:10:31.302Z,1001.33
2017-02-09T11:11:31.391Z,1001.29
2017-02-09T11:12:31.214Z,1001.3
2017-02-09T11:13:31.443Z,1001.3
2017-02-09T11:14:31.446Z,1001.27
2017-02-09T11:15:31.495Z,1001.35
2017-02-09T11:16:31.344Z,1001.37
2017-02-09T11:17:31.516Z,1001.35
2017-02-09T11:18:31.453Z,1001.36
2017-02-09T11:19:31.573Z,1001.31
2017-02-09T11:20:31.576Z,1001.26
2017-02-09T11:21:31.566Z,1001.18
2017-02-09T11:22:31.650Z,1001.21
2017-02-09T11:23:31.593Z,1001.2
2017-02-09T11:24:31.468Z,1001.14
2017-02-09T11:25:31.737Z,1001.12
2017-02-09T11:26:31.781Z,1001.2
2017-02-09T11:27:31.808Z,1001.21
2017-02-09T11:28:31.831Z,1001.19
2017-02-09T11:29:31.748Z,1001.17
2017-02-09T11:30:31.879Z,1001.17
2017-02-09T11:31:31.728Z,1001.12
2017-02-09T11:32:31.879Z,1001.14
2017-02-09T11:33:31.954Z,1001.15
2017-02-09T11:34:32.012Z,1001.12
2017-02-09T11:35:32.026Z,1001.12
2017-02-09T11:36:32.026Z,1001.07
2017-02-09T11:37:31.922Z,1001.06
2017-02-09T11:38:32.093Z,1001.04
2017-02-09T11:39:32.056Z,1001.06
2017-02-09T11:40:32.174Z,1001.04
2017-02-09T11:41:32.156Z,1001.08
2017-02-09T11:42:32.209Z,1001.01
2017-02-09T11:43:32.247Z,1000.98
2017-02-09T11:44:32.508Z,1001.08
2017-02-09T11:45:32.295Z,1001.07
2017-02-09T11:46:32.292Z,1001.1
2017-02-09T11:47:32.364Z,1001.11
2017-02-09T11:48:32.382Z,1001.12
2017-02-09T11:49:32.550Z,1001.08
2017-02-09T11:50:32.234Z,1001.03
2017-02-09T11:51:32.472Z,1001.07
2017-02-09T11:52:32.496Z,1001.06
2017-02-09T11:53:32.508Z,1001.08
2017-02-09T11:54:32.480Z,1001.04
2017-02-09T11:55:32.553Z,1001.05
2017-02-09T11:56:32.606Z,1000.99
2017-02-09T11:57:32.607Z,1001
2017-02-09T11:58:32.620Z,1000.96
2017-02-09T11:59:32.654Z,1000.94
2017-02-09T12:00:32.697Z,1000.91
2017-02-09T12:01:32.738Z,1000.84
2017-02-09T12:02:32.762Z,1000.8
2017-02-09T12:03:32.799Z,1000.83
2017-02-09T12:04:32.729Z,1000.79
2017-02-09T12:05:32.863Z,1000.81
2017-02-09T12:06:32.873Z,1000.83
2017-02-09T12:07:32.865Z,1000.8
2017-02-09T12:08:32.898Z,1000.83
2017-02-09T12:09:32.939Z,1000.85